sensor_id;sensor_type;location;lat;lon;timestamp;pressure;altitude;pressure_sealevel;temperature;humidity
45253;BME280;63171;50.520;30.486;2023-04-01T00:00:17;98711.19;;;8.05;100.00
45253;BME280;63171;50.520;30.486;2023-04-01T00:02:34;98710.75;;;8.11;100.00
45253;BME280;63171;50.520;30.486;2023-04-01T00:03:27;98709.63;;;8.15;100.00
45253;BME280;63171;50.520;30.486;2023-04-01T00:04:17;98714.06;;;8.13;100.00
45253;BME280;63171;50.520;30.486;2023-04-01T00:05:07;98708.97;;;8.12;100.00
45253;BME280;63171;50.520;30.486;2023-04-01T00:05:57;98712.63;;;8.09;100.00
45253;BME280;63171;50.520;30.486;2023-04-01T00:06:48;98710.75;;;8.11;100.00
45253;BME280;63171;50.520;30.486;2023-04-01T00:07:38;98709.81;;;8.12;100.00
45253;BME280;63171;50.520;30.486;2023-04-01T00:08:28;98714.50;;;8.20;100.00
45253;BME280;63171;50.520;30.486;2023-04-01T00:09:18;98716.38;;;8.18;100.00
45253;BME280;63171;50.520;30.486;2023-04-01T00:10:09;98712.81;;;8.19;100.00
45253;BME280;63171;50.520;30.486;2023-04-01T00:10:59;98712.53;;;8.11;100.00
45253;BME280;63171;50.520;30.486;2023-04-01T00:11:50;98712.41;;;8.12;100.00
45253;BME280;63171;50.520;30.486;2023-04-01T00:12:39;98716.91;;;8.10;100.00
45253;BME280;63171;50.520;30.486;2023-04-01T00:13:30;98713.34;;;8.11;100.00
45253;BME280;63171;50.520;30.486;2023-04-01T00:14:19;98716.59;;;8.15;100.00
45253;BME280;63171;50.520;30.486;2023-04-01T00:15:11;98719.00;;;8.18;100.00
45253;BME280;63171;50.520;30.486;2023-04-01T00:16:00;98712.00;;;8.18;100.00
45253;BME280;63171;50.520;30.486;2023-04-01T00:16:52;98714.72;;;8.17;100.00
45253;BME280;63171;50.520;30.486;2023-04-01T00:17:41;98712.22;;;8.15;100.00
45253;BME280;63171;50.520;30.486;2023-04-01T00:18:33;98717.00;;;8.09;100.00
45253;BME280;63171;50.520;30.486;2023-04-01T00:19:23;98714.63;;;8.06;100.00
45253;BME280;63171;50.520;30.486;2023-04-01T00:20:14;98718.47;;;8.00;100.00
45253;BME280;63171;50.520;30.486;2023-04-01T00:21:03;98710.97;;;8.08;100.00
45253;BME280;63171;50.520;30.486;2023-04-01T00:21:53;98714.19;;;8.12;100.00
45253;BME280;63171;50.520;30.486;2023-04-01T00:22:43;98711.38;;;8.15;100.00
45253;BME280;63171;50.520;30.486;2023-04-01T00:23:33;98712.25;;;8.03;100.00
45253;BME280;63171;50.520;30.486;2023-04-01T00:24:23;98715.56;;;8.05;100.00
45253;BME280;63171;50.520;30.486;2023-04-01T00:25:13;98715.03;;;7.99;100.00
45253;BME280;63171;50.520;30.486;2023-04-01T00:26:03;98708.69;;;8.04;100.00
45253;BME280;63171;50.520;30.486;2023-04-01T00:26:54;98707.03;;;8.03;100.00
45253;BME280;63171;50.520;30.486;2023-04-01T00:27:43;98710.03;;;8.09;100.00
45253;BME280;63171;50.520;30.486;2023-04-01T00:28:34;98712.53;;;8.11;100.00
45253;BME280;63171;50.520;30.486;2023-04-01T00:29:24;98721.00;;;8.02;100.00
45253;BME280;63171;50.520;30.486;2023-04-01T00:30:18;98718.47;;;8.00;100.00
45253;BME280;63171;50.520;30.486;2023-04-01T00:31:08;98711.72;;;7.97;100.00
45253;BME280;63171;50.520;30.486;2023-04-01T00:31:59;98706.50;;;7.97;100.00
45253;BME280;63171;50.520;30.486;2023-04-01T00:32:51;98708.69;;;8.04;100.00
45253;BME280;63171;50.520;30.486;2023-04-01T00:33:43;98712.63;;;8.09;100.00
45253;BME280;63171;50.520;30.486;2023-04-01T00:34:32;98710.75;;;8.11;100.00
45253;BME280;63171;50.520;30.486;2023-04-01T00:35:23;98708.47;;;8.07;100.00
45253;BME280;63171;50.520;30.486;2023-04-01T00:36:13;98702.19;;;8.09;100.00
45253;BME280;63171;50.520;30.486;2023-04-01T00:37:04;98703.75;;;8.12;100.00
45253;BME280;63171;50.520;30.486;2023-04-01T00:37:53;98702.09;;;8.11;100.00
45253;BME280;63171;50.520;30.486;2023-04-01T00:38:44;98702.19;;;8.09;100.00
45253;BME280;63171;50.520;30.486;2023-04-01T00:39:34;98706.59;;;8.09;100.00
45253;BME280;63171;50.520;30.486;2023-04-01T00:40:25;98701.16;;;8.12;100.00
45253;BME280;63171;50.520;30.486;2023-04-01T00:41:16;98702.63;;;8.16;100.00
45253;BME280;63171;50.520;30.486;2023-04-01T00:42:08;98705.84;;;8.19;100.00
45253;BME280;63171;50.520;30.486;2023-04-01T00:42:58;98706.16;;;8.15;100.00
45253;BME280;63171;50.520;30.486;2023-04-01T00:43:49;98695.00;;;8.13;100.00
45253;BME280;63171;50.520;30.486;2023-04-01T00:44:40;98700.72;;;8.18;100.00
45253;BME280;63171;50.520;30.486;2023-04-01T00:45:32;98703.22;;;8.19;100.00
45253;BME280;63171;50.520;30.486;2023-04-01T00:46:22;98709.69;;;8.14;100.00
45253;BME280;63171;50.520;30.486;2023-04-01T00:47:12;98698.13;;;8.18;100.00
45253;BME280;63171;50.520;30.486;2023-04-01T00:48:03;98697.91;;;8.21;100.00
45253;BME280;63171;50.520;30.486;2023-04-01T00:48:55;98702.16;;;8.22;100.00
45253;BME280;63171;50.520;30.486;2023-04-01T00:49:48;98701.88;;;8.14;100.00
45253;BME280;63171;50.520;30.486;2023-04-01T00:50:39;98707.91;;;8.14;100.00
45253;BME280;63171;50.520;30.486;2023-04-01T00:51:30;98709.50;;;8.17;100.00
45253;BME280;63171;50.520;30.486;2023-04-01T00:52:21;98703.88;;;8.10;100.00
45253;BME280;63171;50.520;30.486;2023-04-01T00:53:13;98704.47;;;8.14;100.00
45253;BME280;63171;50.520;30.486;2023-04-01T00:54:03;98698.25;;;8.16;100.00
45253;BME280;63171;50.520;30.486;2023-04-01T00:54:55;98700.19;;;8.13;100.00
45253;BME280;63171;50.520;30.486;2023-04-01T00:55:49;98697.09;;;8.08;100.00
45253;BME280;63171;50.520;30.486;2023-04-01T00:56:41;98700.88;;;8.04;100.00
45253;BME280;63171;50.520;30.486;2023-04-01T00:57:34;98693.88;;;8.04;100.00
45253;BME280;63171;50.520;30.486;2023-04-01T00:58:25;98698.75;;;8.09;100.00
45253;BME280;63171;50.520;30.486;2023-04-01T00:59:18;98694.28;;;8.11;100.00
45253;BME280;63171;50.520;30.486;2023-04-01T01:00:10;98690.59;;;8.13;100.00
45253;BME280;63171;50.520;30.486;2023-04-01T01:01:02;98691.88;;;8.08;100.00
45253;BME280;63171;50.520;30.486;2023-04-01T01:01:52;98688.94;;;8.12;100.00
45253;BME280;63171;50.520;30.486;2023-04-01T01:02:42;98694.72;;;8.05;100.00
45253;BME280;63171;50.520;30.486;2023-04-01T01:03:34;98696.75;;;8.12;100.00
45253;BME280;63171;50.520;30.486;2023-04-01T01:04:25;98696.28;;;8.07;100.00
45253;BME280;63171;50.520;30.486;2023-04-01T01:05:16;98696.75;;;8.12;100.00
45253;BME280;63171;50.520;30.486;2023-04-01T01:06:08;98698.34;;;8.15;100.00
45253;BME280;63171;50.520;30.486;2023-04-01T01:07:03;98690.72;;;8.12;100.00
45253;BME280;63171;50.520;30.486;2023-04-01T01:07:57;98694.38;;;8.09;100.00
45253;BME280;63171;50.520;30.486;2023-04-01T01:10:02;98691.66;;;8.11;100.00
45253;BME280;63171;50.520;30.486;2023-04-01T01:10:53;98688.66;;;8.04;100.00
45253;BME280;63171;50.520;30.486;2023-04-01T01:11:44;98691.88;;;8.08;100.00
45253;BME280;63171;50.520;30.486;2023-04-01T01:12:39;98696.50;;;8.04;100.00
45253;BME280;63171;50.520;30.486;2023-04-01T01:13:31;98699.59;;;8.09;100.00
45253;BME280;63171;50.520;30.486;2023-04-01T01:14:27;98696.38;;;8.06;100.00
45253;BME280;63171;50.520;30.486;2023-04-01T01:15:19;98701.16;;;8.12;100.00
45253;BME280;63171;50.520;30.486;2023-04-01T01:16:13;98701.03;;;8.13;100.00
45253;BME280;63171;50.520;30.486;2023-04-01T01:17:07;98703.44;;;8.16;100.00
45253;BME280;63171;50.520;30.486;2023-04-01T01:18:02;98700.00;;;8.16;100.00
45253;BME280;63171;50.520;30.486;2023-04-01T01:18:53;98703.03;;;8.10;100.00
45253;BME280;63171;50.520;30.486;2023-04-01T01:19:53;98703.03;;;8.10;100.00
45253;BME280;63171;50.520;30.486;2023-04-01T01:21:58;98704.59;;;8.12;100.00
45253;BME280;63171;50.520;30.486;2023-04-01T01:22:52;98703.16;;;8.08;100.00
45253;BME280;63171;50.520;30.486;2023-04-01T01:24:58;98698.44;;;8.13;100.00
45253;BME280;63171;50.520;30.486;2023-04-01T01:25:58;98704.59;;;8.12;100.00
45253;BME280;63171;50.520;30.486;2023-04-01T01:26:56;98700.97;;;8.15;100.00
45253;BME280;63171;50.520;30.486;2023-04-01T01:27:54;98705.00;;;8.19;100.00
45253;BME280;63171;50.520;30.486;2023-04-01T01:28:47;98708.34;;;8.21;100.00
45253;BME280;63171;50.520;30.486;2023-04-01T01:29:45;98704.47;;;8.14;100.00
45253;BME280;63171;50.520;30.486;2023-04-01T01:30:41;98703.22;;;8.19;100.00
45253;BME280;63171;50.520;30.486;2023-04-01T01:31:33;98707.28;;;8.23;100.00
45253;BME280;63171;50.520;30.486;2023-04-01T01:32:33;98703.84;;;8.23;100.00
45253;BME280;63171;50.520;30.486;2023-04-01T01:33:35;98707.59;;;8.19;100.00
45253;BME280;63171;50.520;30.486;2023-04-01T01:34:29;98709.06;;;8.23;100.00
45253;BME280;63171;50.520;30.486;2023-04-01T01:35:24;98706.44;;;8.23;100.00
45253;BME280;63171;50.520;30.486;2023-04-01T01:36:16;98712.50;;;8.23;100.00
45253;BME280;63171;50.520;30.486;2023-04-01T01:37:08;98710.09;;;8.20;100.00
45253;BME280;63171;50.520;30.486;2023-04-01T01:38:02;98708.66;;;8.16;100.00
45253;BME280;63171;50.520;30.486;2023-04-01T01:38:52;98705.84;;;8.19;100.00
45253;BME280;63171;50.520;30.486;2023-04-01T01:39:46;98708.03;;;8.13;100.00
45253;BME280;63171;50.520;30.486;2023-04-01T01:40:36;98709.91;;;8.11;100.00
45253;BME280;63171;50.520;30.486;2023-04-01T01:41:29;98708.84;;;8.13;100.00
45253;BME280;63171;50.520;30.486;2023-04-01T01:42:20;98714.06;;;8.13;100.00
45253;BME280;63171;50.520;30.486;2023-04-01T01:43:12;98714.72;;;8.17;100.00
45253;BME280;63171;50.520;30.486;2023-04-01T01:44:04;98711.47;;;8.13;100.00
45253;BME280;63171;50.520;30.486;2023-04-01T01:44:56;98713.06;;;8.16;100.00
45253;BME280;63171;50.520;30.486;2023-04-01T01:45:50;98715.66;;;8.16;100.00
45253;BME280;63171;50.520;30.486;2023-04-01T01:46:43;98712.72;;;8.20;100.00
45253;BME280;63171;50.520;30.486;2023-04-01T01:47:34;98707.59;;;8.19;100.00
45253;BME280;63171;50.520;30.486;2023-04-01T01:48:24;98712.22;;;8.15;100.00
45253;BME280;63171;50.520;30.486;2023-04-01T01:49:16;98716.50;;;8.16;100.00
45253;BME280;63171;50.520;30.486;2023-04-01T01:50:07;98715.44;;;8.19;100.00
45253;BME280;63171;50.520;30.486;2023-04-01T01:50:59;98719.47;;;8.23;100.00
45253;BME280;63171;50.520;30.486;2023-04-01T01:51:49;98721.47;;;8.19;100.00
45253;BME280;63171;50.520;30.486;2023-04-01T01:52:39;98717.00;;;8.21;100.00
45253;BME280;63171;50.520;30.486;2023-04-01T01:53:29;98719.47;;;8.23;100.00
45253;BME280;63171;50.520;30.486;2023-04-01T01:54:19;98724.81;;;8.21;100.00
45253;BME280;63171;50.520;30.486;2023-04-01T01:55:23;98728.97;;;8.24;100.00
45253;BME280;63171;50.520;30.486;2023-04-01T01:56:14;98723.03;;;8.22;100.00
45253;BME280;63171;50.520;30.486;2023-04-01T01:57:08;98727.31;;;8.23;100.00
45253;BME280;63171;50.520;30.486;2023-04-01T01:58:04;98728.25;;;8.22;100.00
45253;BME280;63171;50.520;30.486;2023-04-01T01:58:58;98724.69;;;8.23;100.00
45253;BME280;63171;50.520;30.486;2023-04-01T01:59:50;98730.63;;;8.25;100.00
45253;BME280;63171;50.520;30.486;2023-04-01T02:00:48;98727.84;;;8.28;100.00
45253;BME280;63171;50.520;30.486;2023-04-01T02:01:41;98730.53;;;8.26;100.00
45253;BME280;63171;50.520;30.486;2023-04-01T02:02:35;98727.19;;;8.24;100.00
45253;BME280;63171;50.520;30.486;2023-04-01T02:03:25;98733.25;;;8.25;100.00
45253;BME280;63171;50.520;30.486;2023-04-01T02:04:15;98736.69;;;8.25;100.00
45253;BME280;63171;50.520;30.486;2023-04-01T02:05:08;98731.28;;;8.28;100.00
45253;BME280;63171;50.520;30.486;2023-04-01T02:06:04;98732.19;;;8.27;100.00
45253;BME280;63171;50.520;30.486;2023-04-01T02:06:55;98737.63;;;8.24;100.00
45253;BME280;63171;50.520;30.486;2023-04-01T02:07:49;98729.56;;;8.27;100.00
45253;BME280;63171;50.520;30.486;2023-04-01T02:08:43;98731.28;;;8.28;100.00
45253;BME280;63171;50.520;30.486;2023-04-01T02:09:35;98715.66;;;8.16;100.00
45253;BME280;63171;50.520;30.486;2023-04-01T02:10:26;98723.69;;;8.13;100.00
45253;BME280;63171;50.520;30.486;2023-04-01T02:11:17;98729.13;;;8.10;100.00
45253;BME280;63171;50.520;30.486;2023-04-01T02:12:12;98725.25;;;8.15;100.00
45253;BME280;63171;50.520;30.486;2023-04-01T02:13:05;98727.03;;;8.15;100.00
45253;BME280;63171;50.520;30.486;2023-04-01T02:13:58;98725.88;;;8.19;100.00
45253;BME280;63171;50.520;30.486;2023-04-01T02:14:52;98733.34;;;8.23;100.00
45253;BME280;63171;50.520;30.486;2023-04-01T02:15:44;98726.69;;;8.19;100.00
45253;BME280;63171;50.520;30.486;2023-04-01T02:16:36;98729.19;;;8.21;100.00
45253;BME280;63171;50.520;30.486;2023-04-01T02:17:29;98730.13;;;8.20;100.00
45253;BME280;63171;50.520;30.486;2023-04-01T02:18:19;98725.03;;;8.18;100.00
45253;BME280;63171;50.520;30.486;2023-04-01T02:19:10;98724.81;;;8.21;100.00
45253;BME280;63171;50.520;30.486;2023-04-01T02:20:03;98719.22;;;8.15;100.00
45253;BME280;63171;50.520;30.486;2023-04-01T02:20:55;98721.59;;;8.18;100.00
45253;BME280;63171;50.520;30.486;2023-04-01T02:21:47;98715.66;;;8.16;100.00
45253;BME280;63171;50.520;30.486;2023-04-01T02:22:41;98725.66;;;8.22;100.00
45253;BME280;63171;50.520;30.486;2023-04-01T02:23:32;98726.59;;;8.21;100.00
45253;BME280;63171;50.520;30.486;2023-04-01T02:24:24;98714.81;;;8.15;100.00
45253;BME280;63171;50.520;30.486;2023-04-01T02:25:16;98721.81;;;8.15;100.00
45253;BME280;63171;50.520;30.486;2023-04-01T02:26:08;98723.38;;;8.17;100.00
45253;BME280;63171;50.520;30.486;2023-04-01T02:26:59;98721.38;;;8.21;100.00
45253;BME280;63171;50.520;30.486;2023-04-01T02:27:51;98720.66;;;8.19;100.00
45253;BME280;63171;50.520;30.486;2023-04-01T02:28:40;98724.44;;;8.15;100.00
45253;BME280;63171;50.520;30.486;2023-04-01T02:29:33;98726.91;;;8.16;100.00
45253;BME280;63171;50.520;30.486;2023-04-01T02:30:22;98720.66;;;8.19;100.00
45253;BME280;63171;50.520;30.486;2023-04-01T02:31:13;98725.97;;;8.17;100.00
45253;BME280;63171;50.520;30.486;2023-04-01T02:32:03;98726.16;;;8.14;100.00
45253;BME280;63171;50.520;30.486;2023-04-01T02:32:54;98730.25;;;8.18;100.00
45253;BME280;63171;50.520;30.486;2023-04-01T02:33:45;98730.47;;;8.15;100.00
45253;BME280;63171;50.520;30.486;2023-04-01T02:34:36;98721.72;;;8.16;100.00
45253;BME280;63171;50.520;30.486;2023-04-01T02:35:26;98727.03;;;8.15;100.00
45253;BME280;63171;50.520;30.486;2023-04-01T02:36:15;98723.69;;;8.13;100.00
45253;BME280;63171;50.520;30.486;2023-04-01T02:37:08;98723.19;;;8.08;100.00
45253;BME280;63171;50.520;30.486;2023-04-01T02:37:58;98723.69;;;8.00;100.00
45253;BME280;63171;50.520;30.486;2023-04-01T02:38:48;98719.31;;;8.00;100.00
45253;BME280;63171;50.520;30.486;2023-04-01T02:39:39;98719.16;;;7.91;100.00
45253;BME280;63171;50.520;30.486;2023-04-01T02:40:40;98719.97;;;7.91;100.00
45253;BME280;63171;50.520;30.486;2023-04-01T02:41:30;98723.53;;;7.90;100.00
45253;BME280;63171;50.520;30.486;2023-04-01T02:42:20;98720.38;;;7.98;100.00
45253;BME280;63171;50.520;30.486;2023-04-01T02:43:10;98718.19;;;8.05;100.00
45253;BME280;63171;50.520;30.486;2023-04-01T02:44:00;98719.44;;;7.99;100.00
45253;BME280;63171;50.520;30.486;2023-04-01T02:44:50;98713.59;;;7.95;100.00
45253;BME280;63171;50.520;30.486;2023-04-01T02:45:39;98714.44;;;7.96;100.00
45253;BME280;63171;50.520;30.486;2023-04-01T02:46:30;98713.59;;;7.95;100.00
45253;BME280;63171;50.520;30.486;2023-04-01T02:47:19;98704.84;;;7.96;100.00
45253;BME280;63171;50.520;30.486;2023-04-01T02:48:09;98711.22;;;7.80;100.00
45253;BME280;63171;50.520;30.486;2023-04-01T02:48:59;98715.00;;;7.76;100.00
45253;BME280;63171;50.520;30.486;2023-04-01T02:49:49;98713.50;;;7.84;100.00
45253;BME280;63171;50.520;30.486;2023-04-01T02:50:38;98713.28;;;7.87;100.00
45253;BME280;63171;50.520;30.486;2023-04-01T02:51:29;98717.16;;;7.94;100.00
45253;BME280;63171;50.520;30.486;2023-04-01T02:52:19;98710.16;;;7.95;100.00
45253;BME280;63171;50.520;30.486;2023-04-01T02:53:10;98717.47;;;7.90;100.00
45253;BME280;63171;50.520;30.486;2023-04-01T02:54:00;98714.03;;;7.89;100.00
45253;BME280;63171;50.520;30.486;2023-04-01T02:54:51;98713.72;;;7.94;100.00
45253;BME280;63171;50.520;30.486;2023-04-01T02:55:41;98709.03;;;7.86;100.00
45253;BME280;63171;50.520;30.486;2023-04-01T02:56:31;98707.47;;;7.84;100.00
45253;BME280;63171;50.520;30.486;2023-04-01T02:57:21;98713.22;;;7.76;100.00
45253;BME280;63171;50.520;30.486;2023-04-01T02:58:10;98715.16;;;7.85;100.00
45253;BME280;63171;50.520;30.486;2023-04-01T02:59:01;98713.09;;;7.90;100.00
45253;BME280;63171;50.520;30.486;2023-04-01T02:59:51;98705.41;;;7.89;100.00
45253;BME280;63171;50.520;30.486;2023-04-01T03:00:41;98714.88;;;7.90;100.00
45253;BME280;63171;50.520;30.486;2023-04-01T03:01:31;98719.34;;;7.88;100.00
45253;BME280;63171;50.520;30.486;2023-04-01T03:02:21;98714.78;;;7.79;100.00
45253;BME280;63171;50.520;30.486;2023-04-01T03:03:11;98708.75;;;7.78;100.00
45253;BME280;63171;50.520;30.486;2023-04-01T03:04:02;98709.25;;;7.83;100.00
45253;BME280;63171;50.520;30.486;2023-04-01T03:04:52;98711.63;;;7.86;100.00
45253;BME280;63171;50.520;30.486;2023-04-01T03:05:42;98708.28;;;7.84;100.00
45253;BME280;63171;50.520;30.486;2023-04-01T03:06:31;98706.41;;;7.86;100.00
45253;BME280;63171;50.520;30.486;2023-04-01T03:07:23;98715.16;;;7.85;100.00
45253;BME280;63171;50.520;30.486;2023-04-01T03:08:12;98718.63;;;7.86;100.00
45253;BME280;63171;50.520;30.486;2023-04-01T03:09:02;98713.72;;;7.81;100.00
45253;BME280;63171;50.520;30.486;2023-04-01T03:09:52;98711.63;;;7.86;100.00
45253;BME280;63171;50.520;30.486;2023-04-01T03:10:42;98706.41;;;7.86;100.00
45253;BME280;63171;50.520;30.486;2023-04-01T03:11:32;98710.63;;;7.76;100.00
45253;BME280;63171;50.520;30.486;2023-04-01T03:12:22;98708.75;;;7.78;100.00
45253;BME280;63171;50.520;30.486;2023-04-01T03:13:14;98708.63;;;7.80;100.00
45253;BME280;63171;50.520;30.486;2023-04-01T03:14:06;98713.00;;;7.79;100.00
45253;BME280;63171;50.520;30.486;2023-04-01T03:14:56;98713.13;;;7.78;100.00
45253;BME280;63171;50.520;30.486;2023-04-01T03:15:45;98715.00;;;7.76;100.00
45253;BME280;63171;50.520;30.486;2023-04-01T03:16:37;98711.56;;;7.75;100.00
45253;BME280;63171;50.520;30.486;2023-04-01T03:17:26;98713.00;;;7.79;100.00
45253;BME280;63171;50.520;30.486;2023-04-01T03:18:16;98715.72;;;7.78;100.00
45253;BME280;63171;50.520;30.486;2023-04-01T03:19:07;98711.44;;;7.77;100.00
45253;BME280;63171;50.520;30.486;2023-04-01T03:19:56;98716.56;;;7.78;100.00
45253;BME280;63171;50.520;30.486;2023-04-01T03:20:45;98714.44;;;7.83;100.00
45253;BME280;63171;50.520;30.486;2023-04-01T03:21:36;98715.16;;;7.85;100.00
45253;BME280;63171;50.520;30.486;2023-04-01T03:22:27;98713.28;;;7.87;100.00
45253;BME280;63171;50.520;30.486;2023-04-01T03:23:18;98719.34;;;7.88;100.00
45253;BME280;63171;50.520;30.486;2023-04-01T03:24:08;98710.59;;;7.89;100.00
45253;BME280;63171;50.520;30.486;2023-04-01T03:24:58;98720.28;;;7.87;100.00
45253;BME280;63171;50.520;30.486;2023-04-01T03:25:48;98716.44;;;7.92;100.00
45253;BME280;63171;50.520;30.486;2023-04-01T03:26:39;98722.16;;;7.97;100.00
45253;BME280;63171;50.520;30.486;2023-04-01T03:27:29;98715.25;;;7.96;100.00
45253;BME280;63171;50.520;30.486;2023-04-01T03:28:19;98713.50;;;7.97;100.00
45253;BME280;63171;50.520;30.486;2023-04-01T03:29:08;98716.31;;;7.94;100.00
45253;BME280;63171;50.520;30.486;2023-04-01T03:29:59;98722.97;;;7.98;100.00
45253;BME280;63171;50.520;30.486;2023-04-01T03:30:49;98713.81;;;7.92;100.00
45253;BME280;63171;50.520;30.486;2023-04-01T03:31:39;98721.75;;;7.91;100.00
45253;BME280;63171;50.520;30.486;2023-04-01T03:32:29;98713.94;;;7.91;100.00
45253;BME280;63171;50.520;30.486;2023-04-01T03:33:19;98723.41;;;7.92;100.00
45253;BME280;63171;50.520;30.486;2023-04-01T03:34:09;98726.13;;;7.90;100.00
45253;BME280;63171;50.520;30.486;2023-04-01T03:34:59;98725.41;;;7.88;100.00
45253;BME280;63171;50.520;30.486;2023-04-01T03:35:49;98734.56;;;7.94;100.00
45253;BME280;63171;50.520;30.486;2023-04-01T03:36:42;98731.03;;;7.95;100.00
45253;BME280;63171;50.520;30.486;2023-04-01T03:37:33;98736.00;;;7.98;100.00
45253;BME280;63171;50.520;30.486;2023-04-01T03:38:23;98734.25;;;7.98;100.00
45253;BME280;63171;50.520;30.486;2023-04-01T03:39:14;98737.19;;;7.94;100.00
45253;BME280;63171;50.520;30.486;2023-04-01T03:40:04;98734.06;;;7.89;100.00
45253;BME280;63171;50.520;30.486;2023-04-01T03:40:55;98727.25;;;7.86;100.00
45253;BME280;63171;50.520;30.486;2023-04-01T03:41:45;98734.06;;;7.76;100.00
45253;BME280;63171;50.520;30.486;2023-04-01T03:42:35;98734.06;;;7.76;100.00
45253;BME280;63171;50.520;30.486;2023-04-01T03:43:25;98735.09;;;7.74;100.00
45253;BME280;63171;50.520;30.486;2023-04-01T03:44:15;98740.22;;;7.75;100.00
45253;BME280;63171;50.520;30.486;2023-04-01T03:45:06;98740.41;;;7.85;100.00
45253;BME280;63171;50.520;30.486;2023-04-01T03:45:57;98741.56;;;7.93;100.00
45253;BME280;63171;50.520;30.486;2023-04-01T03:46:47;98738.34;;;7.90;100.00
45253;BME280;63171;50.520;30.486;2023-04-01T03:47:38;98738.22;;;7.91;100.00
45253;BME280;63171;50.520;30.486;2023-04-01T03:48:27;98747.59;;;7.94;100.00
45253;BME280;63171;50.520;30.486;2023-04-01T03:49:18;98744.78;;;7.97;100.00
45253;BME280;63171;50.520;30.486;2023-04-01T03:50:07;98741.00;;;8.01;100.00
45253;BME280;63171;50.520;30.486;2023-04-01T03:50:58;98745.91;;;8.06;100.00
45253;BME280;63171;50.520;30.486;2023-04-01T03:51:48;98747.81;;;8.04;100.00
45253;BME280;63171;50.520;30.486;2023-04-01T03:52:40;98740.81;;;8.04;100.00
45253;BME280;63171;50.520;30.486;2023-04-01T03:53:29;98738.94;;;8.06;100.00
45253;BME280;63171;50.520;30.486;2023-04-01T03:54:23;98747.09;;;8.02;100.00
45253;BME280;63171;50.520;30.486;2023-04-01T03:55:12;98741.00;;;8.01;100.00
45253;BME280;63171;50.520;30.486;2023-04-01T03:56:03;98747.69;;;8.05;100.00
45253;BME280;63171;50.520;30.486;2023-04-01T03:56:53;98751.25;;;8.04;100.00
45253;BME280;63171;50.520;30.486;2023-04-01T03:57:44;98746.66;;;7.95;100.00
45253;BME280;63171;50.520;30.486;2023-04-01T03:58:40;98751.53;;;7.99;100.00
45253;BME280;63171;50.520;30.486;2023-04-01T03:59:31;98742.88;;;7.99;100.00
45253;BME280;63171;50.520;30.486;2023-04-01T04:00:23;98742.06;;;7.98;100.00
45253;BME280;63171;50.520;30.486;2023-04-01T04:01:17;98747.50;;;7.95;100.00
45253;BME280;63171;50.520;30.486;2023-04-01T04:02:10;98743.94;;;7.96;100.00
45253;BME280;63171;50.520;30.486;2023-04-01T04:03:00;98745.22;;;7.91;100.00
45253;BME280;63171;50.520;30.486;2023-04-01T04:03:55;98747.38;;;7.97;100.00
45253;BME280;63171;50.520;30.486;2023-04-01T04:04:45;98746.78;;;7.93;100.00
45253;BME280;63171;50.520;30.486;2023-04-01T04:05:36;98743.22;;;7.94;100.00
45253;BME280;63171;50.520;30.486;2023-04-01T04:06:27;98751.16;;;7.93;100.00
45253;BME280;63171;50.520;30.486;2023-04-01T04:07:17;98741.88;;;7.89;100.00
45253;BME280;63171;50.520;30.486;2023-04-01T04:08:25;98751.25;;;7.91;100.00
45253;BME280;63171;50.520;30.486;2023-04-01T04:09:16;98752.81;;;7.94;100.00
45253;BME280;63171;50.520;30.486;2023-04-01T04:10:06;98753.88;;;7.91;100.00
45253;BME280;63171;50.520;30.486;2023-04-01T04:10:57;98754.69;;;7.92;100.00
45253;BME280;63171;50.520;30.486;2023-04-01T04:11:47;98755.44;;;7.94;100.00
45253;BME280;63171;50.520;30.486;2023-04-01T04:12:37;98749.16;;;7.96;100.00
45253;BME280;63171;50.520;30.486;2023-04-01T04:13:27;98761.97;;;7.99;100.00
45253;BME280;63171;50.520;30.486;2023-04-01T04:14:23;98757.91;;;7.95;100.00
45253;BME280;63171;50.520;30.486;2023-04-01T04:15:13;98755.00;;;7.87;100.00
45253;BME280;63171;50.520;30.486;2023-04-01T04:16:04;98764.50;;;7.88;100.00
45253;BME280;63171;50.520;30.486;2023-04-01T04:16:55;98765.34;;;7.89;100.00
45253;BME280;63171;50.520;30.486;2023-04-01T04:17:45;98765.53;;;7.86;100.00
45253;BME280;63171;50.520;30.486;2023-04-01T04:18:35;98766.91;;;7.79;100.00
45253;BME280;63171;50.520;30.486;2023-04-01T04:19:25;98764.59;;;7.74;100.00
45253;BME280;63171;50.520;30.486;2023-04-01T04:20:15;98767.00;;;7.77;100.00
45253;BME280;63171;50.520;30.486;2023-04-01T04:21:10;98764.59;;;7.87;100.00
45253;BME280;63171;50.520;30.486;2023-04-01T04:22:00;98768.25;;;7.84;100.00
45253;BME280;63171;50.520;30.486;2023-04-01T04:22:50;98768.56;;;7.80;100.00
45253;BME280;63171;50.520;30.486;2023-04-01T04:23:41;98769.91;;;7.85;100.00
45253;BME280;63171;50.520;30.486;2023-04-01T04:24:33;98760.13;;;7.89;100.00
45253;BME280;63171;50.520;30.486;2023-04-01T04:25:29;98773.25;;;7.87;100.00
45253;BME280;63171;50.520;30.486;2023-04-01T04:26:20;98770.44;;;7.90;100.00
45253;BME280;63171;50.520;30.486;2023-04-01T04:27:16;98766.91;;;7.91;100.00
45253;BME280;63171;50.520;30.486;2023-04-01T04:28:17;98768.56;;;7.92;100.00
45253;BME280;63171;50.520;30.486;2023-04-01T04:29:06;98764.28;;;7.91;100.00
45253;BME280;63171;50.520;30.486;2023-04-01T04:29:57;98766.69;;;7.94;100.00
45253;BME280;63171;50.520;30.486;2023-04-01T04:30:47;98760.53;;;7.95;100.00
45253;BME280;63171;50.520;30.486;2023-04-01T04:31:37;98763.25;;;7.94;100.00
45253;BME280;63171;50.520;30.486;2023-04-01T04:32:27;98762.53;;;7.92;100.00
45253;BME280;63171;50.520;30.486;2023-04-01T04:33:17;98759.38;;;7.87;100.00
45253;BME280;63171;50.520;30.486;2023-04-01T04:34:06;98769.91;;;7.85;100.00